createdAt,value
2023-12-15T00:00:25.516Z,5.90
2023-12-15T00:02:52.520Z,6.00
2023-12-15T00:05:19.319Z,5.80
2023-12-15T00:07:46.090Z,5.60
2023-12-15T00:10:13.304Z,5.40
2023-12-15T00:12:40.050Z,5.10
2023-12-15T00:15:07.385Z,5.10
2023-12-15T00:17:34.547Z,5.10
2023-12-15T00:20:01.621Z,5.00
2023-12-15T00:22:28.346Z,5.00
2023-12-15T00:24:55.445Z,5.00
2023-12-15T00:27:22.123Z,5.00
2023-12-15T00:29:48.843Z,5.00
2023-12-15T00:32:15.619Z,5.10
2023-12-15T00:34:42.311Z,5.10
2023-12-15T00:37:08.991Z,5.10
2023-12-15T00:39:38.874Z,5.10
2023-12-15T00:42:08.376Z,5.00
2023-12-15T00:44:35.198Z,5.00
2023-12-15T00:47:02.415Z,5.20
2023-12-15T00:49:29.312Z,5.00
2023-12-15T00:51:56.061Z,4.90
2023-12-15T00:54:22.869Z,4.80
2023-12-15T00:56:50.288Z,4.70
2023-12-15T00:59:17.941Z,4.50
2023-12-15T01:01:44.809Z,4.40
2023-12-15T01:04:11.860Z,4.40
2023-12-15T01:06:38.694Z,4.40
2023-12-15T01:09:06.399Z,4.30
2023-12-15T01:11:33.161Z,4.30
2023-12-15T01:13:59.990Z,4.20
2023-12-15T01:16:26.723Z,4.20
2023-12-15T01:18:53.724Z,4.10
2023-12-15T01:21:20.482Z,4.00
2023-12-15T01:23:47.253Z,4.00
2023-12-15T01:26:14.062Z,4.00
2023-12-15T01:28:40.805Z,4.00
2023-12-15T01:31:07.537Z,3.90
2023-12-15T01:33:34.328Z,3.90
2023-12-15T01:36:01.226Z,3.90
2023-12-15T01:38:28.014Z,3.80
2023-12-15T01:40:54.870Z,3.80
2023-12-15T01:43:21.615Z,3.80
2023-12-15T01:45:53.064Z,3.70
2023-12-15T01:48:25.045Z,3.70
2023-12-15T01:50:52.150Z,3.80
2023-12-15T01:53:18.900Z,3.80
2023-12-15T01:55:45.605Z,3.80
2023-12-15T01:58:12.473Z,3.80
2023-12-15T02:00:39.246Z,3.90
2023-12-15T02:03:06.680Z,3.80
2023-12-15T02:05:33.487Z,3.70
2023-12-15T02:08:00.760Z,3.70
2023-12-15T02:10:27.524Z,3.70
2023-12-15T02:12:54.227Z,3.80
2023-12-15T02:15:20.903Z,3.80
2023-12-15T02:17:47.723Z,3.80
2023-12-15T02:20:14.587Z,3.80
2023-12-15T02:22:41.317Z,3.70
2023-12-15T02:25:08.393Z,3.70
2023-12-15T02:27:35.368Z,3.70
2023-12-15T02:30:02.176Z,3.70
2023-12-15T02:32:28.958Z,3.60
2023-12-15T02:34:55.730Z,3.60
2023-12-15T02:37:22.442Z,3.90
2023-12-15T02:39:49.166Z,3.70
2023-12-15T02:42:15.824Z,3.70
2023-12-15T02:44:46.643Z,3.80
2023-12-15T02:47:13.470Z,3.80
2023-12-15T02:49:41.111Z,3.80
2023-12-15T02:52:08.350Z,3.80
2023-12-15T02:54:35.520Z,3.80
2023-12-15T02:57:02.214Z,3.70
2023-12-15T02:59:28.933Z,3.70
2023-12-15T03:01:55.707Z,3.70
2023-12-15T03:04:22.406Z,3.80
2023-12-15T03:06:49.138Z,3.60
2023-12-15T03:09:15.815Z,3.60
2023-12-15T03:11:42.496Z,3.60
2023-12-15T03:14:09.230Z,3.60
2023-12-15T03:16:35.916Z,3.60
2023-12-15T03:19:02.633Z,3.60
2023-12-15T03:21:29.331Z,3.60
2023-12-15T03:23:56.770Z,3.60
2023-12-15T03:26:23.553Z,3.60
2023-12-15T03:28:50.240Z,3.60
2023-12-15T03:31:16.918Z,3.60
2023-12-15T03:33:43.761Z,3.50
2023-12-15T03:36:10.472Z,3.50
2023-12-15T03:38:37.250Z,3.50
2023-12-15T03:41:04.191Z,3.50
2023-12-15T03:43:30.965Z,3.40
2023-12-15T03:45:57.653Z,3.40
2023-12-15T03:48:24.661Z,3.40
2023-12-15T03:50:51.468Z,3.40
2023-12-15T03:53:18.148Z,3.40
2023-12-15T03:55:44.921Z,3.30
2023-12-15T03:58:11.678Z,3.30
2023-12-15T04:00:38.489Z,3.20
2023-12-15T04:03:05.273Z,3.20
2023-12-15T04:05:32.005Z,3.20
2023-12-15T04:07:58.809Z,3.20
2023-12-15T04:10:25.547Z,3.20
2023-12-15T04:12:52.285Z,3.20
2023-12-15T04:15:20.432Z,3.20
2023-12-15T04:17:47.298Z,3.20
2023-12-15T04:20:14.439Z,3.20
2023-12-15T04:22:41.707Z,3.20
2023-12-15T04:25:08.665Z,3.30
2023-12-15T04:27:38.228Z,3.10
2023-12-15T04:30:07.221Z,3.20
2023-12-15T04:32:34.032Z,3.20
2023-12-15T04:35:00.867Z,3.30
2023-12-15T04:37:27.542Z,3.30
2023-12-15T04:39:54.399Z,3.40
2023-12-15T04:42:21.022Z,3.40
2023-12-15T04:44:47.673Z,3.40
2023-12-15T04:47:14.316Z,3.40
2023-12-15T04:49:41.042Z,3.40
2023-12-15T04:52:07.740Z,3.50
2023-12-15T04:54:34.378Z,3.60
2023-12-15T04:57:00.980Z,3.70
2023-12-15T04:59:27.648Z,3.70
2023-12-15T05:01:54.926Z,3.80
2023-12-15T05:04:21.561Z,3.90
2023-12-15T05:06:48.176Z,4.00
2023-12-15T05:09:14.807Z,4.10
2023-12-15T05:11:41.553Z,4.20
2023-12-15T05:14:08.179Z,4.20
2023-12-15T05:16:34.879Z,4.40
2023-12-15T05:19:01.569Z,4.50
2023-12-15T05:21:28.229Z,4.60
2023-12-15T05:23:54.912Z,4.70
2023-12-15T05:26:21.521Z,4.70
2023-12-15T05:28:48.188Z,4.80
2023-12-15T05:31:14.876Z,4.80
2023-12-15T05:33:43.111Z,4.90
2023-12-15T05:36:20.536Z,4.90
2023-12-15T05:38:51.706Z,5.00
2023-12-15T05:41:18.333Z,5.00
2023-12-15T05:43:45.337Z,5.10
2023-12-15T05:46:12.104Z,5.10
2023-12-15T05:48:38.910Z,5.10
2023-12-15T05:51:07.590Z,5.10
2023-12-15T05:53:39.635Z,5.10
2023-12-15T05:56:12.478Z,5.00
2023-12-15T05:58:39.101Z,5.00
2023-12-15T06:01:06.090Z,5.00
2023-12-15T06:03:35.465Z,5.10
2023-12-15T06:06:03.077Z,5.10
2023-12-15T06:08:29.879Z,5.10
2023-12-15T06:10:56.577Z,5.10
2023-12-15T06:13:23.206Z,5.20
2023-12-15T06:15:49.841Z,5.20
2023-12-15T06:18:16.644Z,5.20
2023-12-15T06:20:43.412Z,5.10
2023-12-15T06:23:10.089Z,5.00
2023-12-15T06:25:36.769Z,5.00
2023-12-15T06:28:03.450Z,4.90
2023-12-15T06:30:30.150Z,4.90
2023-12-15T06:32:56.923Z,5.00
2023-12-15T06:35:23.600Z,5.00
2023-12-15T06:37:51.581Z,5.00
2023-12-15T06:40:18.224Z,5.00
2023-12-15T06:42:44.851Z,5.00
2023-12-15T06:45:11.497Z,4.90
2023-12-15T06:47:39.615Z,4.80
2023-12-15T06:50:07.337Z,4.80
2023-12-15T06:52:37.517Z,4.80
2023-12-15T06:55:04.622Z,4.80
2023-12-15T06:57:31.706Z,4.90
2023-12-15T06:59:58.461Z,4.90
2023-12-15T07:02:25.187Z,4.90
2023-12-15T07:04:52.098Z,4.90
2023-12-15T07:07:19.161Z,4.90
2023-12-15T07:09:45.913Z,4.70
2023-12-15T07:12:12.571Z,4.60
2023-12-15T07:14:39.272Z,4.40
2023-12-15T07:17:06.040Z,4.20
2023-12-15T07:19:33.014Z,4.20
2023-12-15T07:21:59.772Z,4.00
2023-12-15T07:24:26.964Z,3.90
2023-12-15T07:26:53.598Z,3.80
2023-12-15T07:29:22.545Z,3.80
2023-12-15T07:31:50.972Z,3.80
2023-12-15T07:34:18.411Z,3.80
2023-12-15T07:36:45.164Z,3.80
2023-12-15T07:39:11.885Z,3.80
2023-12-15T07:41:40.459Z,3.90
2023-12-15T07:44:07.798Z,3.90
2023-12-15T07:46:34.688Z,3.90
2023-12-15T07:49:01.739Z,3.90
2023-12-15T07:51:28.609Z,3.90
2023-12-15T07:53:55.289Z,3.80
2023-12-15T07:56:26.926Z,3.90
2023-12-15T07:58:55.098Z,3.90
2023-12-15T08:01:23.744Z,3.90
2023-12-15T08:03:53.890Z,3.90
2023-12-15T08:06:21.208Z,3.80
2023-12-15T08:08:48.794Z,3.80
2023-12-15T08:11:16.118Z,3.90
2023-12-15T08:13:42.950Z,3.90
2023-12-15T08:16:13.161Z,4.00
2023-12-15T08:18:42.724Z,4.00
2023-12-15T08:21:11.253Z,4.00
2023-12-15T08:23:37.998Z,4.00
2023-12-15T08:26:04.959Z,4.00
2023-12-15T08:28:31.632Z,4.00
2023-12-15T08:30:59.852Z,4.00
2023-12-15T08:33:26.722Z,4.10
2023-12-15T08:35:53.375Z,4.10
2023-12-15T08:38:20.026Z,4.20
2023-12-15T08:40:46.684Z,4.20
2023-12-15T08:43:14.726Z,4.20
2023-12-15T08:45:41.468Z,4.30
2023-12-15T08:48:09.546Z,4.30
2023-12-15T08:50:36.575Z,4.30
2023-12-15T08:53:03.537Z,4.40
2023-12-15T08:55:30.365Z,4.40
2023-12-15T08:57:57.071Z,4.40
2023-12-15T09:00:23.932Z,4.40
2023-12-15T09:02:53.432Z,4.40
2023-12-15T09:05:33.288Z,4.40
2023-12-15T09:08:09.761Z,4.30
2023-12-15T09:10:42.422Z,4.30
2023-12-15T09:13:09.165Z,4.40
2023-12-15T09:15:35.854Z,4.40
2023-12-15T09:18:02.726Z,4.40
2023-12-15T09:20:29.684Z,4.40
2023-12-15T09:22:56.642Z,4.50
2023-12-15T09:25:23.340Z,4.50
2023-12-15T09:27:50.010Z,4.60
2023-12-15T09:30:16.914Z,4.60
2023-12-15T09:32:44.038Z,4.60
2023-12-15T09:35:11.675Z,4.60
2023-12-15T09:37:38.691Z,4.70
2023-12-15T09:40:06.156Z,4.70
2023-12-15T09:42:32.790Z,4.70
2023-12-15T09:45:06.742Z,4.80
2023-12-15T09:47:38.235Z,4.80
2023-12-15T09:50:06.281Z,4.80
2023-12-15T09:52:33.641Z,4.90
2023-12-15T09:55:00.924Z,4.90
2023-12-15T09:57:28.021Z,5.00
2023-12-15T09:59:55.762Z,5.10
2023-12-15T10:02:22.421Z,5.10
2023-12-15T10:04:49.687Z,5.00
2023-12-15T10:07:16.502Z,5.10
2023-12-15T10:09:43.362Z,5.00
2023-12-15T10:12:11.205Z,5.10
2023-12-15T10:14:38.946Z,5.10
2023-12-15T10:17:14.709Z,5.10
2023-12-15T10:19:41.527Z,5.10
2023-12-15T10:22:08.225Z,5.10
2023-12-15T10:24:35.751Z,5.20
2023-12-15T10:27:04.674Z,5.20
2023-12-15T10:29:31.713Z,5.20
2023-12-15T10:31:59.503Z,5.30
2023-12-15T10:34:27.743Z,5.30
2023-12-15T10:36:55.262Z,5.30
2023-12-15T10:39:23.511Z,5.40
2023-12-15T10:41:52.867Z,5.40
2023-12-15T10:44:22.162Z,5.40
2023-12-15T10:46:49.461Z,5.50
2023-12-15T10:49:17.484Z,5.50
2023-12-15T10:51:44.758Z,5.50
2023-12-15T10:54:11.433Z,5.50
2023-12-15T10:56:39.473Z,5.50
2023-12-15T10:59:07.762Z,5.50
2023-12-15T11:01:40.252Z,5.50
2023-12-15T11:04:26.506Z,5.50
2023-12-15T11:06:54.524Z,5.40
2023-12-15T11:09:50.069Z,5.50
2023-12-15T11:12:33.196Z,5.50
2023-12-15T11:15:08.524Z,5.60
2023-12-15T11:17:41.549Z,5.60
2023-12-15T11:20:25.363Z,5.60
2023-12-15T11:22:59.683Z,5.70
2023-12-15T11:25:30.540Z,5.70
2023-12-15T11:28:09.308Z,5.70
2023-12-15T11:30:42.930Z,5.70
2023-12-15T11:33:41.699Z,5.70
2023-12-15T11:36:15.163Z,5.70
2023-12-15T11:38:43.582Z,5.70
2023-12-15T11:41:11.731Z,5.80
2023-12-15T11:43:39.130Z,5.80
2023-12-15T11:46:06.698Z,5.80
2023-12-15T11:48:37.200Z,5.80
2023-12-15T11:51:04.909Z,5.80
2023-12-15T11:53:33.477Z,5.80
2023-12-15T11:56:02.645Z,5.80
2023-12-15T11:58:29.602Z,5.80
2023-12-15T12:00:56.298Z,5.90
2023-12-15T12:03:24.165Z,5.90
2023-12-15T12:05:56.032Z,5.90
2023-12-15T12:08:23.920Z,5.90
2023-12-15T12:10:51.949Z,5.90
2023-12-15T12:13:18.670Z,5.90
2023-12-15T12:15:53.936Z,5.90
2023-12-15T12:18:22.071Z,5.90
2023-12-15T12:20:49.664Z,6.00
2023-12-15T12:23:24.852Z,6.00
2023-12-15T12:25:56.749Z,6.10
2023-12-15T12:28:28.689Z,6.10
2023-12-15T12:30:55.691Z,6.20
2023-12-15T12:33:22.866Z,6.20
2023-12-15T12:35:49.697Z,6.20
2023-12-15T12:38:16.428Z,6.20
2023-12-15T12:40:44.052Z,6.20
2023-12-15T12:43:10.720Z,6.20
2023-12-15T12:45:37.517Z,6.20
2023-12-15T12:48:05.602Z,6.30
2023-12-15T12:50:33.491Z,6.30
2023-12-15T12:53:00.554Z,6.30
2023-12-15T12:55:29.164Z,6.30
2023-12-15T12:57:56.655Z,6.30
2023-12-15T13:00:23.430Z,6.40
2023-12-15T13:02:51.565Z,6.40
2023-12-15T13:05:18.447Z,6.40
2023-12-15T13:07:45.218Z,6.50
2023-12-15T13:10:17.555Z,6.50
2023-12-15T13:12:46.282Z,6.50
2023-12-15T13:15:13.424Z,6.40
2023-12-15T13:17:43.437Z,6.40
2023-12-15T13:20:10.556Z,6.30
2023-12-15T13:22:47.252Z,6.40
2023-12-15T13:25:15.609Z,6.40
2023-12-15T13:27:42.653Z,6.40
2023-12-15T13:30:11.338Z,6.40
2023-12-15T13:32:39.582Z,6.40
2023-12-15T13:35:07.907Z,6.30
2023-12-15T13:37:35.014Z,6.40
2023-12-15T13:40:01.960Z,6.40
2023-12-15T13:42:28.658Z,6.40
2023-12-15T13:44:55.317Z,6.40
2023-12-15T13:47:22.508Z,6.40
2023-12-15T13:49:49.611Z,6.50
2023-12-15T13:52:16.390Z,6.50
2023-12-15T13:54:43.549Z,6.50
2023-12-15T13:57:10.265Z,6.50
2023-12-15T13:59:36.945Z,6.50
2023-12-15T14:02:04.780Z,6.50
2023-12-15T14:04:31.503Z,6.50
2023-12-15T14:07:01.219Z,6.50
2023-12-15T14:09:29.067Z,6.50
2023-12-15T14:11:56.960Z,6.50
2023-12-15T14:14:23.989Z,6.60
2023-12-15T14:16:50.812Z,6.60
2023-12-15T14:19:19.061Z,6.60
2023-12-15T14:21:46.725Z,6.60
2023-12-15T14:24:17.709Z,6.60
2023-12-15T14:26:45.578Z,6.60
2023-12-15T14:29:12.773Z,6.60
2023-12-15T14:31:39.878Z,6.50
2023-12-15T14:34:07.198Z,6.50
2023-12-15T14:36:34.159Z,6.50
2023-12-15T14:39:00.902Z,6.50
2023-12-15T14:41:28.488Z,6.70
2023-12-15T14:43:55.476Z,6.50
2023-12-15T14:46:23.198Z,6.50
2023-12-15T14:48:50.227Z,6.50
2023-12-15T14:51:17.030Z,6.50
2023-12-15T14:53:43.820Z,6.50
2023-12-15T14:56:12.427Z,6.80
2023-12-15T14:58:40.790Z,6.50
2023-12-15T15:01:07.984Z,6.50
2023-12-15T15:03:35.190Z,6.50
2023-12-15T15:06:02.973Z,6.50
2023-12-15T15:08:30.424Z,6.50
2023-12-15T15:10:59.594Z,6.50
2023-12-15T15:13:26.377Z,6.50
2023-12-15T15:15:53.476Z,6.50
2023-12-15T15:18:22.033Z,6.40
2023-12-15T15:20:49.212Z,6.40
2023-12-15T15:23:16.111Z,6.50
2023-12-15T15:25:42.967Z,6.40
2023-12-15T15:28:09.888Z,6.40
2023-12-15T15:30:39.040Z,6.30
2023-12-15T15:33:06.133Z,6.40
2023-12-15T15:35:32.953Z,6.30
2023-12-15T15:37:59.849Z,6.30
2023-12-15T15:40:26.809Z,6.30
2023-12-15T15:42:53.735Z,6.30
2023-12-15T15:45:20.767Z,6.30
2023-12-15T15:47:48.904Z,6.30
2023-12-15T15:50:15.852Z,6.30
2023-12-15T15:52:42.553Z,6.20
2023-12-15T15:55:09.622Z,6.20
2023-12-15T15:57:37.252Z,6.20
2023-12-15T16:00:04.814Z,6.20
2023-12-15T16:02:32.246Z,6.10
2023-12-15T16:04:59.748Z,6.10
2023-12-15T16:07:26.580Z,6.10
2023-12-15T16:09:53.418Z,6.10
2023-12-15T16:12:20.913Z,6.00
2023-12-15T16:14:47.739Z,6.10
2023-12-15T16:17:14.517Z,6.00
2023-12-15T16:19:41.427Z,5.90
2023-12-15T16:22:09.366Z,5.90
2023-12-15T16:24:36.289Z,5.90
2023-12-15T16:27:03.064Z,5.90
2023-12-15T16:29:29.960Z,5.90
2023-12-15T16:31:56.733Z,5.90
2023-12-15T16:34:23.504Z,5.90
2023-12-15T16:36:50.983Z,5.90
2023-12-15T16:39:17.706Z,6.10
2023-12-15T16:41:44.575Z,6.00
2023-12-15T16:44:11.354Z,6.00
2023-12-15T16:46:38.147Z,6.00
2023-12-15T16:49:05.230Z,6.00
2023-12-15T16:51:36.954Z,6.10
2023-12-15T16:54:04.331Z,6.10
2023-12-15T16:56:31.408Z,6.10
2023-12-15T16:58:58.254Z,6.00
2023-12-15T17:01:26.127Z,6.10
2023-12-15T17:03:52.944Z,6.00
2023-12-15T17:06:19.752Z,6.00
2023-12-15T17:08:46.635Z,6.00
2023-12-15T17:11:15.100Z,6.00
2023-12-15T17:13:45.024Z,6.10
2023-12-15T17:16:16.616Z,6.10
2023-12-15T17:18:48.213Z,6.10
2023-12-15T17:21:15.684Z,6.20
2023-12-15T17:23:42.683Z,6.20
2023-12-15T17:26:09.516Z,6.20
2023-12-15T17:28:36.224Z,6.20
2023-12-15T17:31:06.149Z,6.10
2023-12-15T17:33:33.048Z,6.20
2023-12-15T17:36:00.079Z,6.10
2023-12-15T17:38:26.851Z,6.10
2023-12-15T17:40:53.815Z,6.10
2023-12-15T17:43:20.969Z,6.10
2023-12-15T17:45:47.903Z,6.10
2023-12-15T17:48:16.456Z,6.10
2023-12-15T17:50:43.883Z,6.10
2023-12-15T17:53:10.702Z,6.10
2023-12-15T17:55:37.509Z,6.10
2023-12-15T17:58:05.492Z,6.10
2023-12-15T18:00:33.994Z,6.10
2023-12-15T18:03:01.703Z,6.10
2023-12-15T18:05:28.567Z,6.10
2023-12-15T18:08:02.733Z,6.10
2023-12-15T18:10:29.847Z,6.10
2023-12-15T18:12:56.625Z,6.10
2023-12-15T18:15:23.370Z,6.10
2023-12-15T18:17:50.964Z,6.10
2023-12-15T18:20:19.378Z,6.20
2023-12-15T18:22:46.678Z,6.20
2023-12-15T18:25:16.633Z,6.20
2023-12-15T18:27:44.961Z,6.20
2023-12-15T18:30:13.689Z,6.20
2023-12-15T18:32:41.745Z,6.30
2023-12-15T18:35:10.061Z,6.20
2023-12-15T18:37:36.971Z,6.30
2023-12-15T18:40:08.304Z,6.30
2023-12-15T18:42:35.245Z,6.30
2023-12-15T18:45:02.037Z,6.30
2023-12-15T18:47:29.690Z,6.20
2023-12-15T18:49:56.661Z,6.20
2023-12-15T18:52:23.551Z,6.10
2023-12-15T18:54:50.349Z,6.20
2023-12-15T18:57:17.139Z,6.20
2023-12-15T18:59:44.137Z,6.20
2023-12-15T19:02:12.393Z,6.30
2023-12-15T19:04:41.753Z,6.20
2023-12-15T19:07:08.824Z,6.20
2023-12-15T19:09:36.560Z,6.20
2023-12-15T19:12:03.429Z,6.20
2023-12-15T19:14:30.151Z,6.30
2023-12-15T19:16:57.611Z,6.40
2023-12-15T19:19:24.516Z,6.30
2023-12-15T19:21:51.316Z,6.30
2023-12-15T19:24:18.246Z,6.30
2023-12-15T19:26:45.504Z,6.30
2023-12-15T19:29:13.181Z,6.30
2023-12-15T19:31:40.623Z,6.30
2023-12-15T19:34:10.264Z,6.30
2023-12-15T19:36:39.027Z,6.30
2023-12-15T19:39:07.224Z,6.30
2023-12-15T19:41:35.617Z,6.40
2023-12-15T19:44:04.047Z,6.50
2023-12-15T19:46:37.876Z,6.40
2023-12-15T19:49:05.852Z,6.40
2023-12-15T19:51:32.910Z,6.40
2023-12-15T19:54:05.553Z,6.30
2023-12-15T19:56:41.919Z,6.30
2023-12-15T19:59:11.915Z,6.30
2023-12-15T20:01:38.806Z,6.30
2023-12-15T20:04:05.879Z,6.30
2023-12-15T20:06:34.557Z,6.30
2023-12-15T20:09:05.007Z,6.30
2023-12-15T20:11:35.259Z,6.30
2023-12-15T20:14:08.867Z,6.30
2023-12-15T20:16:36.012Z,6.30
2023-12-15T20:19:03.516Z,6.20
2023-12-15T20:21:30.749Z,6.20
2023-12-15T20:23:58.820Z,6.30
2023-12-15T20:26:25.602Z,6.30
2023-12-15T20:28:54.134Z,6.30
2023-12-15T20:31:20.955Z,6.30
2023-12-15T20:33:47.913Z,6.30
2023-12-15T20:36:19.552Z,6.40
2023-12-15T20:38:46.382Z,6.40
2023-12-15T20:41:20.385Z,6.40
2023-12-15T20:43:47.681Z,6.50
2023-12-15T20:46:15.124Z,6.40
2023-12-15T20:48:42.276Z,6.40
2023-12-15T20:51:10.060Z,6.40
2023-12-15T20:53:37.615Z,6.40
2023-12-15T20:56:04.847Z,6.40
2023-12-15T20:58:31.627Z,6.40
2023-12-15T21:00:58.509Z,6.50
2023-12-15T21:03:25.373Z,6.40
2023-12-15T21:05:52.129Z,6.40
2023-12-15T21:08:19.001Z,6.40
2023-12-15T21:10:45.834Z,6.40
2023-12-15T21:13:13.378Z,6.40
2023-12-15T21:15:43.280Z,6.50
2023-12-15T21:18:10.278Z,6.50
2023-12-15T21:20:37.274Z,6.50
2023-12-15T21:23:04.072Z,6.60
2023-12-15T21:25:30.823Z,6.60
2023-12-15T21:27:57.559Z,6.70
2023-12-15T21:30:25.108Z,6.80
2023-12-15T21:32:52.029Z,6.80
2023-12-15T21:35:19.162Z,6.70
2023-12-15T21:37:45.977Z,6.70
2023-12-15T21:40:13.152Z,6.70
2023-12-15T21:42:40.153Z,6.70
2023-12-15T21:45:08.917Z,6.70
2023-12-15T21:47:36.081Z,6.70
2023-12-15T21:50:03.580Z,6.60
2023-12-15T21:52:34.091Z,6.60
2023-12-15T21:55:01.831Z,6.60
2023-12-15T21:57:28.773Z,6.60
2023-12-15T21:59:56.687Z,6.60
2023-12-15T22:02:24.325Z,6.60
2023-12-15T22:04:51.095Z,6.50
2023-12-15T22:07:17.940Z,6.60
2023-12-15T22:09:44.821Z,6.60
2023-12-15T22:12:11.597Z,6.70
2023-12-15T22:14:44.993Z,6.70
2023-12-15T22:17:13.747Z,6.70
2023-12-15T22:19:40.945Z,6.70
2023-12-15T22:22:08.213Z,6.60
2023-12-15T22:24:35.518Z,6.50
2023-12-15T22:27:02.780Z,6.50
2023-12-15T22:29:29.465Z,6.50
2023-12-15T22:31:56.224Z,6.40
2023-12-15T22:34:23.088Z,6.40
2023-12-15T22:36:50.700Z,6.40
2023-12-15T22:39:17.448Z,6.40
2023-12-15T22:41:45.657Z,6.40
2023-12-15T22:44:13.050Z,6.40
2023-12-15T22:46:42.845Z,6.40
2023-12-15T22:49:10.130Z,6.40
2023-12-15T22:51:45.815Z,6.40
2023-12-15T22:54:13.213Z,6.50
2023-12-15T22:56:43.612Z,6.40
2023-12-15T22:59:13.021Z,6.40
2023-12-15T23:01:40.255Z,6.30
2023-12-15T23:04:10.211Z,6.20
2023-12-15T23:06:37.141Z,6.30
2023-12-15T23:09:09.499Z,6.20
2023-12-15T23:11:37.631Z,6.30
2023-12-15T23:14:04.962Z,6.20
2023-12-15T23:16:31.998Z,6.20
2023-12-15T23:18:58.984Z,6.20
2023-12-15T23:21:28.940Z,6.10
2023-12-15T23:23:56.713Z,6.10
2023-12-15T23:26:23.917Z,6.20
2023-12-15T23:28:50.971Z,6.20
2023-12-15T23:31:17.884Z,6.20
2023-12-15T23:33:44.930Z,6.20
2023-12-15T23:36:13.408Z,6.20
2023-12-15T23:38:41.123Z,6.10
2023-12-15T23:41:08.822Z,6.30
2023-12-15T23:43:35.853Z,6.10
2023-12-15T23:46:02.880Z,6.10
2023-12-15T23:48:29.676Z,6.10
2023-12-15T23:50:56.517Z,6.10
2023-12-15T23:53:23.269Z,6.10
2023-12-15T23:55:49.987Z,6.10
2023-12-15T23:58:17.602Z,6.20
